sensor_id;sensor_type;location;lat;lon;timestamp;temperature;humidity
4759;DHT22;2393;50.560;12.636;2023-06-14T00:02:09;11.20;99.90
4759;DHT22;2393;50.560;12.636;2023-06-14T00:04:37;11.20;99.90
4759;DHT22;2393;50.560;12.636;2023-06-14T00:07:08;11.10;99.90
4759;DHT22;2393;50.560;12.636;2023-06-14T00:09:41;11.10;99.90
4759;DHT22;2393;50.560;12.636;2023-06-14T00:12:10;11.00;99.90
4759;DHT22;2393;50.560;12.636;2023-06-14T00:14:38;11.00;99.90
4759;DHT22;2393;50.560;12.636;2023-06-14T00:17:06;11.00;99.90
4759;DHT22;2393;50.560;12.636;2023-06-14T00:19:35;11.00;99.90
4759;DHT22;2393;50.560;12.636;2023-06-14T00:22:04;10.90;99.90
4759;DHT22;2393;50.560;12.636;2023-06-14T00:24:32;10.90;99.90
4759;DHT22;2393;50.560;12.636;2023-06-14T00:27:02;10.80;99.90
4759;DHT22;2393;50.560;12.636;2023-06-14T00:29:30;10.80;99.90
4759;DHT22;2393;50.560;12.636;2023-06-14T00:31:58;10.80;99.90
4759;DHT22;2393;50.560;12.636;2023-06-14T00:34:26;10.80;99.90
4759;DHT22;2393;50.560;12.636;2023-06-14T00:36:54;10.80;99.90
4759;DHT22;2393;50.560;12.636;2023-06-14T00:39:23;10.80;99.90
4759;DHT22;2393;50.560;12.636;2023-06-14T00:41:51;10.80;99.90
4759;DHT22;2393;50.560;12.636;2023-06-14T00:44:21;10.80;99.90
4759;DHT22;2393;50.560;12.636;2023-06-14T00:46:50;10.80;99.90
4759;DHT22;2393;50.560;12.636;2023-06-14T00:49:19;10.80;99.90
4759;DHT22;2393;50.560;12.636;2023-06-14T00:51:48;10.70;99.90
4759;DHT22;2393;50.560;12.636;2023-06-14T00:54:16;10.70;99.90
4759;DHT22;2393;50.560;12.636;2023-06-14T00:56:44;10.70;99.90
4759;DHT22;2393;50.560;12.636;2023-06-14T00:59:13;10.60;99.90
4759;DHT22;2393;50.560;12.636;2023-06-14T01:01:43;10.60;99.90
4759;DHT22;2393;50.560;12.636;2023-06-14T01:04:12;10.50;99.90
4759;DHT22;2393;50.560;12.636;2023-06-14T01:06:45;10.50;99.90
4759;DHT22;2393;50.560;12.636;2023-06-14T01:09:18;10.40;99.90
4759;DHT22;2393;50.560;12.636;2023-06-14T01:11:52;10.40;99.90
4759;DHT22;2393;50.560;12.636;2023-06-14T01:14:22;10.30;99.90
4759;DHT22;2393;50.560;12.636;2023-06-14T01:16:54;10.20;99.90
4759;DHT22;2393;50.560;12.636;2023-06-14T01:19:24;10.10;99.90
4759;DHT22;2393;50.560;12.636;2023-06-14T01:21:52;10.00;99.90
4759;DHT22;2393;50.560;12.636;2023-06-14T01:24:23;10.00;99.90
4759;DHT22;2393;50.560;12.636;2023-06-14T01:26:53;9.90;99.90
4759;DHT22;2393;50.560;12.636;2023-06-14T01:29:23;9.80;99.90
4759;DHT22;2393;50.560;12.636;2023-06-14T01:31:54;9.70;99.90
4759;DHT22;2393;50.560;12.636;2023-06-14T01:34:22;9.60;99.90
4759;DHT22;2393;50.560;12.636;2023-06-14T01:36:52;9.50;99.90
4759;DHT22;2393;50.560;12.636;2023-06-14T01:39:23;9.40;99.90
4759;DHT22;2393;50.560;12.636;2023-06-14T01:41:52;9.30;99.90
4759;DHT22;2393;50.560;12.636;2023-06-14T01:44:21;9.20;99.90
4759;DHT22;2393;50.560;12.636;2023-06-14T01:46:51;9.20;99.90
4759;DHT22;2393;50.560;12.636;2023-06-14T01:49:22;9.10;99.90
4759;DHT22;2393;50.560;12.636;2023-06-14T01:51:50;9.10;99.90
4759;DHT22;2393;50.560;12.636;2023-06-14T01:54:18;9.10;99.90
4759;DHT22;2393;50.560;12.636;2023-06-14T01:56:47;9.00;99.90
4759;DHT22;2393;50.560;12.636;2023-06-14T01:59:15;9.00;99.90
4759;DHT22;2393;50.560;12.636;2023-06-14T02:01:43;8.90;99.90
4759;DHT22;2393;50.560;12.636;2023-06-14T02:04:13;8.80;99.90
4759;DHT22;2393;50.560;12.636;2023-06-14T02:06:41;8.70;99.90
4759;DHT22;2393;50.560;12.636;2023-06-14T02:09:09;8.60;99.90
4759;DHT22;2393;50.560;12.636;2023-06-14T02:11:37;8.60;99.90
4759;DHT22;2393;50.560;12.636;2023-06-14T02:14:07;8.50;99.90
4759;DHT22;2393;50.560;12.636;2023-06-14T02:16:37;8.50;99.90
4759;DHT22;2393;50.560;12.636;2023-06-14T02:19:07;8.50;99.90
4759;DHT22;2393;50.560;12.636;2023-06-14T02:21:35;8.50;99.90
4759;DHT22;2393;50.560;12.636;2023-06-14T02:24:05;8.50;99.90
4759;DHT22;2393;50.560;12.636;2023-06-14T02:26:33;8.50;99.90
4759;DHT22;2393;50.560;12.636;2023-06-14T02:29:01;8.40;99.90
4759;DHT22;2393;50.560;12.636;2023-06-14T02:31:32;8.30;99.90
4759;DHT22;2393;50.560;12.636;2023-06-14T02:34:00;8.20;99.90
4759;DHT22;2393;50.560;12.636;2023-06-14T02:36:28;8.20;99.90
4759;DHT22;2393;50.560;12.636;2023-06-14T02:39:00;8.10;99.90
4759;DHT22;2393;50.560;12.636;2023-06-14T02:41:28;8.00;99.90
4759;DHT22;2393;50.560;12.636;2023-06-14T02:43:56;8.00;99.90
4759;DHT22;2393;50.560;12.636;2023-06-14T02:46:28;7.90;99.90
4759;DHT22;2393;50.560;12.636;2023-06-14T02:48:57;7.90;99.90
4759;DHT22;2393;50.560;12.636;2023-06-14T02:51:26;7.90;99.90
4759;DHT22;2393;50.560;12.636;2023-06-14T02:53:53;7.90;99.90
4759;DHT22;2393;50.560;12.636;2023-06-14T02:56:22;8.00;99.90
4759;DHT22;2393;50.560;12.636;2023-06-14T02:58:50;8.00;99.90
4759;DHT22;2393;50.560;12.636;2023-06-14T03:01:19;8.00;99.90
4759;DHT22;2393;50.560;12.636;2023-06-14T03:03:49;8.10;99.90
4759;DHT22;2393;50.560;12.636;2023-06-14T03:06:19;8.10;99.90
4759;DHT22;2393;50.560;12.636;2023-06-14T03:08:51;8.10;99.90
4759;DHT22;2393;50.560;12.636;2023-06-14T03:11:22;8.10;99.90
4759;DHT22;2393;50.560;12.636;2023-06-14T03:13:51;8.10;99.90
4759;DHT22;2393;50.560;12.636;2023-06-14T03:16:20;8.10;99.90
4759;DHT22;2393;50.560;12.636;2023-06-14T03:18:49;8.10;99.90
4759;DHT22;2393;50.560;12.636;2023-06-14T03:21:19;8.10;99.90
4759;DHT22;2393;50.560;12.636;2023-06-14T03:23:47;8.10;99.90
4759;DHT22;2393;50.560;12.636;2023-06-14T03:26:16;8.10;99.90
4759;DHT22;2393;50.560;12.636;2023-06-14T03:28:47;8.10;99.90
4759;DHT22;2393;50.560;12.636;2023-06-14T03:31:17;8.10;99.90
4759;DHT22;2393;50.560;12.636;2023-06-14T03:33:46;8.20;99.90
4759;DHT22;2393;50.560;12.636;2023-06-14T03:36:14;8.20;99.90
4759;DHT22;2393;50.560;12.636;2023-06-14T03:38:44;8.20;99.90
4759;DHT22;2393;50.560;12.636;2023-06-14T03:41:14;8.10;99.90
4759;DHT22;2393;50.560;12.636;2023-06-14T03:43:43;8.10;99.90
4759;DHT22;2393;50.560;12.636;2023-06-14T03:46:11;8.00;99.90
4759;DHT22;2393;50.560;12.636;2023-06-14T03:48:39;8.10;99.90
4759;DHT22;2393;50.560;12.636;2023-06-14T03:51:07;8.10;99.90
4759;DHT22;2393;50.560;12.636;2023-06-14T03:53:37;8.20;99.90
4759;DHT22;2393;50.560;12.636;2023-06-14T03:56:21;8.20;99.90
4759;DHT22;2393;50.560;12.636;2023-06-14T03:58:49;8.30;99.90
4759;DHT22;2393;50.560;12.636;2023-06-14T04:01:20;8.30;99.90
4759;DHT22;2393;50.560;12.636;2023-06-14T04:03:58;8.40;99.90
4759;DHT22;2393;50.560;12.636;2023-06-14T04:06:27;8.50;99.90
4759;DHT22;2393;50.560;12.636;2023-06-14T04:09:00;8.50;99.90
4759;DHT22;2393;50.560;12.636;2023-06-14T04:11:31;8.60;99.90
4759;DHT22;2393;50.560;12.636;2023-06-14T04:13:59;8.80;99.90
4759;DHT22;2393;50.560;12.636;2023-06-14T04:16:29;8.90;99.90
4759;DHT22;2393;50.560;12.636;2023-06-14T04:18:58;9.00;99.90
4759;DHT22;2393;50.560;12.636;2023-06-14T04:21:27;9.10;99.90
4759;DHT22;2393;50.560;12.636;2023-06-14T04:23:58;9.30;99.90
4759;DHT22;2393;50.560;12.636;2023-06-14T04:26:31;9.40;99.90
4759;DHT22;2393;50.560;12.636;2023-06-14T04:29:00;9.50;99.90
4759;DHT22;2393;50.560;12.636;2023-06-14T04:31:32;9.70;99.90
4759;DHT22;2393;50.560;12.636;2023-06-14T04:34:06;9.80;99.90
4759;DHT22;2393;50.560;12.636;2023-06-14T04:36:35;10.00;99.90
4759;DHT22;2393;50.560;12.636;2023-06-14T04:39:05;10.10;99.90
4759;DHT22;2393;50.560;12.636;2023-06-14T04:41:35;10.30;99.90
4759;DHT22;2393;50.560;12.636;2023-06-14T04:44:03;10.50;99.90
4759;DHT22;2393;50.560;12.636;2023-06-14T04:46:37;10.70;99.90
4759;DHT22;2393;50.560;12.636;2023-06-14T04:49:20;11.00;99.90
4759;DHT22;2393;50.560;12.636;2023-06-14T04:51:53;11.30;99.90
4759;DHT22;2393;50.560;12.636;2023-06-14T04:54:26;11.60;99.90
4759;DHT22;2393;50.560;12.636;2023-06-14T04:56:56;11.90;99.90
4759;DHT22;2393;50.560;12.636;2023-06-14T04:59:26;12.20;99.90
4759;DHT22;2393;50.560;12.636;2023-06-14T05:01:54;12.40;99.90
4759;DHT22;2393;50.560;12.636;2023-06-14T05:04:24;12.70;99.90
4759;DHT22;2393;50.560;12.636;2023-06-14T05:06:53;12.80;99.90
4759;DHT22;2393;50.560;12.636;2023-06-14T05:09:22;13.10;99.90
4759;DHT22;2393;50.560;12.636;2023-06-14T05:11:51;13.30;99.90
4759;DHT22;2393;50.560;12.636;2023-06-14T05:14:21;13.60;99.90
4759;DHT22;2393;50.560;12.636;2023-06-14T05:16:51;13.90;99.90
4759;DHT22;2393;50.560;12.636;2023-06-14T05:19:19;14.10;99.90
4759;DHT22;2393;50.560;12.636;2023-06-14T05:21:49;14.30;99.90
4759;DHT22;2393;50.560;12.636;2023-06-14T05:24:17;14.50;99.90
4759;DHT22;2393;50.560;12.636;2023-06-14T05:26:45;14.60;99.90
4759;DHT22;2393;50.560;12.636;2023-06-14T05:29:14;14.70;99.90
4759;DHT22;2393;50.560;12.636;2023-06-14T05:31:43;14.80;99.90
4759;DHT22;2393;50.560;12.636;2023-06-14T05:34:11;15.00;99.90
4759;DHT22;2393;50.560;12.636;2023-06-14T05:36:39;15.20;99.90
4759;DHT22;2393;50.560;12.636;2023-06-14T05:39:08;15.40;99.90
4759;DHT22;2393;50.560;12.636;2023-06-14T05:41:37;15.60;99.90
4759;DHT22;2393;50.560;12.636;2023-06-14T05:44:04;15.80;99.90
4759;DHT22;2393;50.560;12.636;2023-06-14T05:46:34;15.90;99.90
4759;DHT22;2393;50.560;12.636;2023-06-14T05:49:03;16.00;99.90
4759;DHT22;2393;50.560;12.636;2023-06-14T05:51:32;16.20;99.90
4759;DHT22;2393;50.560;12.636;2023-06-14T05:54:01;16.50;99.90
4759;DHT22;2393;50.560;12.636;2023-06-14T05:56:29;16.60;99.90
4759;DHT22;2393;50.560;12.636;2023-06-14T05:58:57;16.80;99.90
4759;DHT22;2393;50.560;12.636;2023-06-14T06:01:25;17.00;99.90
4759;DHT22;2393;50.560;12.636;2023-06-14T06:03:53;17.00;99.90
4759;DHT22;2393;50.560;12.636;2023-06-14T06:06:22;17.00;99.90
4759;DHT22;2393;50.560;12.636;2023-06-14T06:08:50;17.10;99.90
4759;DHT22;2393;50.560;12.636;2023-06-14T06:11:18;17.30;99.90
4759;DHT22;2393;50.560;12.636;2023-06-14T06:13:46;17.40;99.90
4759;DHT22;2393;50.560;12.636;2023-06-14T06:16:15;17.60;99.90
4759;DHT22;2393;50.560;12.636;2023-06-14T06:18:42;17.80;99.90
4759;DHT22;2393;50.560;12.636;2023-06-14T06:21:11;17.90;99.90
4759;DHT22;2393;50.560;12.636;2023-06-14T06:23:40;17.90;99.90
4759;DHT22;2393;50.560;12.636;2023-06-14T06:26:09;18.00;99.90
4759;DHT22;2393;50.560;12.636;2023-06-14T06:28:37;18.10;99.90
4759;DHT22;2393;50.560;12.636;2023-06-14T06:31:05;18.20;99.90
4759;DHT22;2393;50.560;12.636;2023-06-14T06:33:33;18.40;99.90
4759;DHT22;2393;50.560;12.636;2023-06-14T06:36:03;18.70;99.90
4759;DHT22;2393;50.560;12.636;2023-06-14T06:38:31;18.80;99.90
4759;DHT22;2393;50.560;12.636;2023-06-14T06:41:01;18.90;99.90
4759;DHT22;2393;50.560;12.636;2023-06-14T06:43:28;18.90;99.90
4759;DHT22;2393;50.560;12.636;2023-06-14T06:45:57;19.30;99.90
4759;DHT22;2393;50.560;12.636;2023-06-14T06:48:25;19.40;99.90
4759;DHT22;2393;50.560;12.636;2023-06-14T06:50:53;19.60;99.90
4759;DHT22;2393;50.560;12.636;2023-06-14T06:53:21;20.00;99.90
4759;DHT22;2393;50.560;12.636;2023-06-14T06:56:06;20.30;99.90
4759;DHT22;2393;50.560;12.636;2023-06-14T06:58:34;20.40;99.90
4759;DHT22;2393;50.560;12.636;2023-06-14T07:01:02;20.80;99.90
4759;DHT22;2393;50.560;12.636;2023-06-14T07:03:30;21.10;99.90
4759;DHT22;2393;50.560;12.636;2023-06-14T07:05:58;21.40;99.90
4759;DHT22;2393;50.560;12.636;2023-06-14T07:08:26;21.40;99.90
4759;DHT22;2393;50.560;12.636;2023-06-14T07:10:54;21.50;99.90
4759;DHT22;2393;50.560;12.636;2023-06-14T07:13:24;21.50;99.90
4759;DHT22;2393;50.560;12.636;2023-06-14T07:15:54;21.40;99.90
4759;DHT22;2393;50.560;12.636;2023-06-14T07:18:23;21.50;99.90
4759;DHT22;2393;50.560;12.636;2023-06-14T07:20:51;21.70;99.90
4759;DHT22;2393;50.560;12.636;2023-06-14T07:23:20;22.00;99.90
4759;DHT22;2393;50.560;12.636;2023-06-14T07:25:48;22.30;99.90
4759;DHT22;2393;50.560;12.636;2023-06-14T07:28:17;22.60;99.90
4759;DHT22;2393;50.560;12.636;2023-06-14T07:30:46;22.80;99.90
4759;DHT22;2393;50.560;12.636;2023-06-14T07:33:15;22.70;98.70
4759;DHT22;2393;50.560;12.636;2023-06-14T07:35:43;22.60;99.30
4759;DHT22;2393;50.560;12.636;2023-06-14T07:38:16;22.60;98.10
4759;DHT22;2393;50.560;12.636;2023-06-14T07:40:43;22.60;99.10
4759;DHT22;2393;50.560;12.636;2023-06-14T07:43:12;22.70;98.30
4759;DHT22;2393;50.560;12.636;2023-06-14T07:45:40;22.80;97.60
4759;DHT22;2393;50.560;12.636;2023-06-14T07:48:24;22.90;96.90
4759;DHT22;2393;50.560;12.636;2023-06-14T07:50:55;23.10;98.00
4759;DHT22;2393;50.560;12.636;2023-06-14T07:53:23;23.40;98.60
4759;DHT22;2393;50.560;12.636;2023-06-14T07:55:51;23.50;97.90
4759;DHT22;2393;50.560;12.636;2023-06-14T07:58:19;23.60;96.10
4759;DHT22;2393;50.560;12.636;2023-06-14T08:00:47;23.90;97.10
4759;DHT22;2393;50.560;12.636;2023-06-14T08:03:16;24.30;96.40
4759;DHT22;2393;50.560;12.636;2023-06-14T08:05:46;24.30;93.10
4759;DHT22;2393;50.560;12.636;2023-06-14T08:08:14;23.90;94.10
4759;DHT22;2393;50.560;12.636;2023-06-14T08:10:42;23.80;93.80
4759;DHT22;2393;50.560;12.636;2023-06-14T08:13:10;23.40;92.60
4759;DHT22;2393;50.560;12.636;2023-06-14T08:15:38;23.20;92.10
4759;DHT22;2393;50.560;12.636;2023-06-14T08:18:06;22.90;94.50
4759;DHT22;2393;50.560;12.636;2023-06-14T08:20:34;22.70;95.40
4759;DHT22;2393;50.560;12.636;2023-06-14T08:23:04;22.90;96.70
4759;DHT22;2393;50.560;12.636;2023-06-14T08:25:32;23.40;96.60
4759;DHT22;2393;50.560;12.636;2023-06-14T08:28:00;23.40;94.50
4759;DHT22;2393;50.560;12.636;2023-06-14T08:30:28;23.10;94.70
4759;DHT22;2393;50.560;12.636;2023-06-14T08:32:56;23.20;95.60
4759;DHT22;2393;50.560;12.636;2023-06-14T08:35:42;23.50;95.70
4759;DHT22;2393;50.560;12.636;2023-06-14T08:38:11;23.70;95.00
4759;DHT22;2393;50.560;12.636;2023-06-14T08:40:41;23.30;94.60
4759;DHT22;2393;50.560;12.636;2023-06-14T08:43:09;23.00;94.30
4759;DHT22;2393;50.560;12.636;2023-06-14T08:45:37;22.70;94.80
4759;DHT22;2393;50.560;12.636;2023-06-14T08:48:07;22.40;95.30
4759;DHT22;2393;50.560;12.636;2023-06-14T08:50:37;22.10;96.10
4759;DHT22;2393;50.560;12.636;2023-06-14T08:53:11;21.90;95.90
4759;DHT22;2393;50.560;12.636;2023-06-14T08:55:47;21.50;95.70
4759;DHT22;2393;50.560;12.636;2023-06-14T08:58:16;20.80;96.50
4759;DHT22;2393;50.560;12.636;2023-06-14T09:00:46;20.60;97.00
4759;DHT22;2393;50.560;12.636;2023-06-14T09:03:14;20.60;97.00
4759;DHT22;2393;50.560;12.636;2023-06-14T09:05:42;20.50;98.40
4759;DHT22;2393;50.560;12.636;2023-06-14T09:08:13;20.40;99.90
4759;DHT22;2393;50.560;12.636;2023-06-14T09:10:44;20.60;98.60
4759;DHT22;2393;50.560;12.636;2023-06-14T09:13:13;20.40;98.20
4759;DHT22;2393;50.560;12.636;2023-06-14T09:15:43;20.50;99.70
4759;DHT22;2393;50.560;12.636;2023-06-14T09:18:11;21.20;99.80
4759;DHT22;2393;50.560;12.636;2023-06-14T09:20:40;21.70;98.40
4759;DHT22;2393;50.560;12.636;2023-06-14T09:23:08;22.00;98.20
4759;DHT22;2393;50.560;12.636;2023-06-14T09:25:43;22.40;97.90
4759;DHT22;2393;50.560;12.636;2023-06-14T09:28:14;22.80;97.80
4759;DHT22;2393;50.560;12.636;2023-06-14T09:30:42;22.90;96.80
4759;DHT22;2393;50.560;12.636;2023-06-14T09:33:11;22.70;96.50
4759;DHT22;2393;50.560;12.636;2023-06-14T09:35:45;22.60;96.60
4759;DHT22;2393;50.560;12.636;2023-06-14T09:38:13;22.10;96.90
4759;DHT22;2393;50.560;12.636;2023-06-14T09:40:43;22.00;96.70
4759;DHT22;2393;50.560;12.636;2023-06-14T09:43:11;21.90;96.70
4759;DHT22;2393;50.560;12.636;2023-06-14T09:45:39;21.80;97.20
4759;DHT22;2393;50.560;12.636;2023-06-14T09:48:07;21.80;98.20
4759;DHT22;2393;50.560;12.636;2023-06-14T09:50:37;21.80;97.70
4759;DHT22;2393;50.560;12.636;2023-06-14T09:53:07;21.60;97.80
4759;DHT22;2393;50.560;12.636;2023-06-14T09:55:36;21.40;96.50
4759;DHT22;2393;50.560;12.636;2023-06-14T09:58:08;21.40;96.90
4759;DHT22;2393;50.560;12.636;2023-06-14T10:00:39;21.20;96.90
4759;DHT22;2393;50.560;12.636;2023-06-14T10:03:12;20.90;96.90
4759;DHT22;2393;50.560;12.636;2023-06-14T10:05:43;20.50;97.50
4759;DHT22;2393;50.560;12.636;2023-06-14T10:08:14;20.50;97.60
4759;DHT22;2393;50.560;12.636;2023-06-14T10:10:44;20.30;97.40
4759;DHT22;2393;50.560;12.636;2023-06-14T10:13:14;20.20;98.40
4759;DHT22;2393;50.560;12.636;2023-06-14T10:15:57;20.20;98.80
4759;DHT22;2393;50.560;12.636;2023-06-14T10:18:32;20.30;97.60
4759;DHT22;2393;50.560;12.636;2023-06-14T10:21:13;20.40;99.80
4759;DHT22;2393;50.560;12.636;2023-06-14T10:23:43;20.70;97.80
4759;DHT22;2393;50.560;12.636;2023-06-14T10:26:19;20.80;97.50
4759;DHT22;2393;50.560;12.636;2023-06-14T10:28:59;21.00;96.40
4759;DHT22;2393;50.560;12.636;2023-06-14T10:31:41;20.70;95.60
4759;DHT22;2393;50.560;12.636;2023-06-14T10:34:10;20.50;96.10
4759;DHT22;2393;50.560;12.636;2023-06-14T10:36:41;20.40;97.40
4759;DHT22;2393;50.560;12.636;2023-06-14T10:39:14;20.20;96.30
4759;DHT22;2393;50.560;12.636;2023-06-14T10:41:51;20.30;98.20
4759;DHT22;2393;50.560;12.636;2023-06-14T10:44:41;20.20;96.40
4759;DHT22;2393;50.560;12.636;2023-06-14T10:47:11;20.30;97.60
4759;DHT22;2393;50.560;12.636;2023-06-14T10:49:41;20.40;98.70
4759;DHT22;2393;50.560;12.636;2023-06-14T10:52:11;20.40;97.10
4759;DHT22;2393;50.560;12.636;2023-06-14T10:55:15;20.50;98.80
4759;DHT22;2393;50.560;12.636;2023-06-14T10:57:47;21.10;97.30
4759;DHT22;2393;50.560;12.636;2023-06-14T11:00:23;21.20;96.30
4759;DHT22;2393;50.560;12.636;2023-06-14T11:03:22;21.30;95.30
4759;DHT22;2393;50.560;12.636;2023-06-14T11:05:57;21.30;95.10
4759;DHT22;2393;50.560;12.636;2023-06-14T11:08:44;21.30;94.50
4759;DHT22;2393;50.560;12.636;2023-06-14T11:11:18;21.10;94.40
4759;DHT22;2393;50.560;12.636;2023-06-14T11:13:49;20.90;95.10
4759;DHT22;2393;50.560;12.636;2023-06-14T11:16:18;20.70;95.30
4759;DHT22;2393;50.560;12.636;2023-06-14T11:18:46;20.70;95.10
4759;DHT22;2393;50.560;12.636;2023-06-14T11:21:16;20.90;97.10
4759;DHT22;2393;50.560;12.636;2023-06-14T11:23:49;21.20;96.30
4759;DHT22;2393;50.560;12.636;2023-06-14T11:26:24;21.30;94.70
4759;DHT22;2393;50.560;12.636;2023-06-14T11:28:57;21.10;93.90
4759;DHT22;2393;50.560;12.636;2023-06-14T11:31:27;21.00;94.40
4759;DHT22;2393;50.560;12.636;2023-06-14T11:33:57;20.90;94.20
4759;DHT22;2393;50.560;12.636;2023-06-14T11:36:26;20.80;95.30
4759;DHT22;2393;50.560;12.636;2023-06-14T11:38:59;20.70;95.40
4759;DHT22;2393;50.560;12.636;2023-06-14T11:41:33;20.50;96.20
4759;DHT22;2393;50.560;12.636;2023-06-14T11:44:02;20.40;95.70
4759;DHT22;2393;50.560;12.636;2023-06-14T11:46:31;20.40;96.10
4759;DHT22;2393;50.560;12.636;2023-06-14T11:48:59;20.30;96.80
4759;DHT22;2393;50.560;12.636;2023-06-14T11:51:30;20.30;96.00
4759;DHT22;2393;50.560;12.636;2023-06-14T11:53:58;20.50;97.50
4759;DHT22;2393;50.560;12.636;2023-06-14T11:56:27;20.70;96.30
4759;DHT22;2393;50.560;12.636;2023-06-14T11:58:55;20.70;96.20
4759;DHT22;2393;50.560;12.636;2023-06-14T12:01:24;20.70;96.20
4759;DHT22;2393;50.560;12.636;2023-06-14T12:03:54;20.60;95.00
4759;DHT22;2393;50.560;12.636;2023-06-14T12:06:26;20.70;95.70
4759;DHT22;2393;50.560;12.636;2023-06-14T12:08:56;20.80;96.70
4759;DHT22;2393;50.560;12.636;2023-06-14T12:11:31;21.20;96.90
4759;DHT22;2393;50.560;12.636;2023-06-14T12:14:00;21.60;95.50
4759;DHT22;2393;50.560;12.636;2023-06-14T12:16:33;22.10;96.70
4759;DHT22;2393;50.560;12.636;2023-06-14T12:19:08;22.60;97.20
4759;DHT22;2393;50.560;12.636;2023-06-14T12:21:38;22.80;95.30
4759;DHT22;2393;50.560;12.636;2023-06-14T12:24:07;22.70;93.90
4759;DHT22;2393;50.560;12.636;2023-06-14T12:26:39;22.10;94.00
4759;DHT22;2393;50.560;12.636;2023-06-14T12:29:08;21.50;93.50
4759;DHT22;2393;50.560;12.636;2023-06-14T12:31:37;21.30;93.80
4759;DHT22;2393;50.560;12.636;2023-06-14T12:34:07;21.20;95.20
4759;DHT22;2393;50.560;12.636;2023-06-14T12:36:35;21.00;94.30
4759;DHT22;2393;50.560;12.636;2023-06-14T12:39:08;21.10;95.60
4759;DHT22;2393;50.560;12.636;2023-06-14T12:41:36;21.40;94.80
4759;DHT22;2393;50.560;12.636;2023-06-14T12:44:07;21.90;94.30
4759;DHT22;2393;50.560;12.636;2023-06-14T12:46:35;22.50;95.60
4759;DHT22;2393;50.560;12.636;2023-06-14T12:49:03;22.60;93.40
4759;DHT22;2393;50.560;12.636;2023-06-14T12:51:33;22.50;93.70
4759;DHT22;2393;50.560;12.636;2023-06-14T12:54:01;22.30;93.80
4759;DHT22;2393;50.560;12.636;2023-06-14T12:56:29;22.20;93.30
4759;DHT22;2393;50.560;12.636;2023-06-14T12:58:58;22.00;93.20
4759;DHT22;2393;50.560;12.636;2023-06-14T13:01:26;21.70;93.60
4759;DHT22;2393;50.560;12.636;2023-06-14T13:03:54;21.60;93.90
4759;DHT22;2393;50.560;12.636;2023-06-14T13:06:22;21.50;94.50
4759;DHT22;2393;50.560;12.636;2023-06-14T13:08:52;21.30;93.80
4759;DHT22;2393;50.560;12.636;2023-06-14T13:11:21;21.30;94.40
4759;DHT22;2393;50.560;12.636;2023-06-14T13:13:49;21.50;93.80
4759;DHT22;2393;50.560;12.636;2023-06-14T13:16:18;22.00;94.20
4759;DHT22;2393;50.560;12.636;2023-06-14T13:18:46;22.60;94.40
4759;DHT22;2393;50.560;12.636;2023-06-14T13:21:14;23.10;93.30
4759;DHT22;2393;50.560;12.636;2023-06-14T13:23:42;23.00;93.00
4759;DHT22;2393;50.560;12.636;2023-06-14T13:26:11;22.90;92.40
4759;DHT22;2393;50.560;12.636;2023-06-14T13:28:39;22.80;92.70
4759;DHT22;2393;50.560;12.636;2023-06-14T13:31:08;22.80;92.70
4759;DHT22;2393;50.560;12.636;2023-06-14T13:33:37;22.60;93.40
4759;DHT22;2393;50.560;12.636;2023-06-14T13:36:05;22.30;93.00
4759;DHT22;2393;50.560;12.636;2023-06-14T13:38:33;22.00;92.30
4759;DHT22;2393;50.560;12.636;2023-06-14T13:41:01;21.90;92.80
4759;DHT22;2393;50.560;12.636;2023-06-14T13:43:30;21.60;91.70
4759;DHT22;2393;50.560;12.636;2023-06-14T13:45:58;21.40;93.40
4759;DHT22;2393;50.560;12.636;2023-06-14T13:48:26;21.70;93.10
4759;DHT22;2393;50.560;12.636;2023-06-14T13:50:54;22.10;93.80
4759;DHT22;2393;50.560;12.636;2023-06-14T13:53:23;22.30;92.00
4759;DHT22;2393;50.560;12.636;2023-06-14T13:55:52;22.50;91.50
4759;DHT22;2393;50.560;12.636;2023-06-14T13:58:20;22.60;92.90
4759;DHT22;2393;50.560;12.636;2023-06-14T14:00:51;22.60;91.30
4759;DHT22;2393;50.560;12.636;2023-06-14T14:03:19;22.50;92.60
4759;DHT22;2393;50.560;12.636;2023-06-14T14:05:48;22.40;92.80
4759;DHT22;2393;50.560;12.636;2023-06-14T14:08:16;22.40;93.70
4759;DHT22;2393;50.560;12.636;2023-06-14T14:10:44;22.70;93.90
4759;DHT22;2393;50.560;12.636;2023-06-14T14:13:12;22.70;92.60
4759;DHT22;2393;50.560;12.636;2023-06-14T14:15:41;22.30;92.60
4759;DHT22;2393;50.560;12.636;2023-06-14T14:18:10;22.30;93.40
4759;DHT22;2393;50.560;12.636;2023-06-14T14:20:38;22.20;93.80
4759;DHT22;2393;50.560;12.636;2023-06-14T14:23:06;22.40;94.20
4759;DHT22;2393;50.560;12.636;2023-06-14T14:25:34;22.60;94.90
4759;DHT22;2393;50.560;12.636;2023-06-14T14:28:02;22.90;94.40
4759;DHT22;2393;50.560;12.636;2023-06-14T14:30:30;22.90;93.50
4759;DHT22;2393;50.560;12.636;2023-06-14T14:32:59;23.10;94.40
4759;DHT22;2393;50.560;12.636;2023-06-14T14:35:29;23.30;93.60
4759;DHT22;2393;50.560;12.636;2023-06-14T14:37:57;23.50;93.80
4759;DHT22;2393;50.560;12.636;2023-06-14T14:40:25;23.80;93.10
4759;DHT22;2393;50.560;12.636;2023-06-14T14:42:53;23.80;93.00
4759;DHT22;2393;50.560;12.636;2023-06-14T14:45:21;24.10;92.20
4759;DHT22;2393;50.560;12.636;2023-06-14T14:47:49;24.10;93.10
4759;DHT22;2393;50.560;12.636;2023-06-14T14:50:21;24.30;92.50
4759;DHT22;2393;50.560;12.636;2023-06-14T14:52:50;24.30;92.30
4759;DHT22;2393;50.560;12.636;2023-06-14T14:55:18;24.60;92.00
4759;DHT22;2393;50.560;12.636;2023-06-14T14:57:46;24.10;91.30
4759;DHT22;2393;50.560;12.636;2023-06-14T15:00:15;24.00;91.40
4759;DHT22;2393;50.560;12.636;2023-06-14T15:02:44;23.80;90.60
4759;DHT22;2393;50.560;12.636;2023-06-14T15:05:12;23.60;91.00
4759;DHT22;2393;50.560;12.636;2023-06-14T15:07:40;23.40;91.40
4759;DHT22;2393;50.560;12.636;2023-06-14T15:10:10;23.50;91.70
4759;DHT22;2393;50.560;12.636;2023-06-14T15:12:37;23.60;91.80
4759;DHT22;2393;50.560;12.636;2023-06-14T15:15:06;23.50;91.30
4759;DHT22;2393;50.560;12.636;2023-06-14T15:17:36;23.40;92.10
4759;DHT22;2393;50.560;12.636;2023-06-14T15:20:05;23.30;92.50
4759;DHT22;2393;50.560;12.636;2023-06-14T15:22:33;23.50;92.80
4759;DHT22;2393;50.560;12.636;2023-06-14T15:25:01;23.70;92.60
4759;DHT22;2393;50.560;12.636;2023-06-14T15:27:31;23.80;92.60
4759;DHT22;2393;50.560;12.636;2023-06-14T15:29:59;23.70;92.40
4759;DHT22;2393;50.560;12.636;2023-06-14T15:32:27;23.60;91.60
4759;DHT22;2393;50.560;12.636;2023-06-14T15:34:55;23.50;92.10
4759;DHT22;2393;50.560;12.636;2023-06-14T15:37:23;23.40;92.20
4759;DHT22;2393;50.560;12.636;2023-06-14T15:39:51;23.40;93.80
4759;DHT22;2393;50.560;12.636;2023-06-14T15:42:19;23.50;94.20
4759;DHT22;2393;50.560;12.636;2023-06-14T15:44:49;23.60;94.10
4759;DHT22;2393;50.560;12.636;2023-06-14T15:47:17;23.80;94.00
4759;DHT22;2393;50.560;12.636;2023-06-14T15:49:45;23.80;92.90
4759;DHT22;2393;50.560;12.636;2023-06-14T15:52:13;23.70;93.50
4759;DHT22;2393;50.560;12.636;2023-06-14T15:54:41;23.80;93.70
4759;DHT22;2393;50.560;12.636;2023-06-14T15:57:09;23.70;93.40
4759;DHT22;2393;50.560;12.636;2023-06-14T15:59:38;23.60;94.00
4759;DHT22;2393;50.560;12.636;2023-06-14T16:02:07;23.40;93.30
4759;DHT22;2393;50.560;12.636;2023-06-14T16:04:35;22.80;92.80
4759;DHT22;2393;50.560;12.636;2023-06-14T16:07:04;22.50;93.50